createdAt,value
2022-10-28T00:01:32.556Z,29.10
2022-10-28T00:04:34.658Z,29.20
2022-10-28T00:07:36.629Z,29.10
2022-10-28T00:10:38.813Z,29.10
2022-10-28T00:13:41.630Z,29.30
2022-10-28T00:16:43.766Z,29.30
2022-10-28T00:19:45.743Z,29.20
2022-10-28T00:22:47.874Z,29.10
2022-10-28T00:25:49.759Z,29.40
2022-10-28T00:28:54.279Z,29.40
2022-10-28T00:31:56.444Z,29.30
2022-10-28T00:34:58.746Z,29.20
2022-10-28T00:38:00.710Z,28.90
2022-10-28T00:41:02.947Z,28.70
2022-10-28T00:44:42.296Z,28.70
2022-10-28T00:47:55.986Z,28.90
2022-10-28T00:50:59.038Z,28.80
2022-10-28T00:54:02.765Z,29.10
2022-10-28T00:57:10.753Z,28.80
2022-10-28T01:00:13.717Z,28.80
2022-10-28T01:03:16.507Z,28.80
2022-10-28T01:06:18.735Z,28.90
2022-10-28T01:09:20.680Z,28.80
2022-10-28T01:12:43.893Z,28.80
2022-10-28T01:15:58.989Z,29.10
2022-10-28T01:19:18.894Z,29.40
2022-10-28T01:22:47.909Z,29.50
2022-10-28T01:26:11.709Z,29.20
2022-10-28T01:29:35.224Z,29.00
2022-10-28T01:32:52.978Z,28.90
2022-10-28T01:36:02.071Z,28.90
2022-10-28T01:39:32.209Z,28.90
2022-10-28T01:42:45.886Z,29.20
2022-10-28T01:46:29.138Z,29.50
2022-10-28T01:49:34.861Z,29.70
2022-10-28T01:52:39.175Z,28.80
2022-10-28T01:55:45.724Z,28.80
2022-10-28T01:58:49.722Z,28.80
2022-10-28T02:01:51.926Z,28.90
2022-10-28T02:05:23.628Z,28.70
2022-10-28T02:08:43.657Z,28.80
2022-10-28T02:12:00.759Z,28.80
2022-10-28T02:15:37.380Z,29.00
2022-10-28T02:19:15.379Z,28.70
2022-10-28T02:22:30.616Z,28.60
2022-10-28T02:25:38.467Z,28.70
2022-10-28T02:28:54.312Z,28.70
2022-10-28T02:32:01.851Z,28.70
2022-10-28T02:35:05.425Z,28.70
2022-10-28T02:38:26.862Z,28.70
2022-10-28T02:41:47.678Z,28.70
2022-10-28T02:44:55.272Z,28.90
2022-10-28T02:48:21.165Z,28.80
2022-10-28T02:51:28.661Z,29.00
2022-10-28T02:54:49.087Z,29.00
2022-10-28T02:57:51.651Z,29.00
2022-10-28T03:00:53.912Z,28.80
2022-10-28T03:03:56.089Z,28.70
2022-10-28T03:06:58.038Z,28.80
2022-10-28T03:10:00.136Z,28.70
2022-10-28T03:13:02.077Z,28.80
2022-10-28T03:16:04.459Z,28.80
2022-10-28T03:19:06.482Z,28.90
2022-10-28T03:22:08.688Z,29.00
2022-10-28T03:25:10.964Z,29.40
2022-10-28T03:28:13.087Z,28.90
2022-10-28T03:31:15.725Z,28.80
2022-10-28T03:34:17.787Z,28.80
2022-10-28T03:37:19.716Z,28.90
2022-10-28T03:40:21.874Z,29.00
2022-10-28T03:43:23.903Z,29.00
2022-10-28T03:46:26.034Z,29.10
2022-10-28T03:49:28.228Z,29.00
2022-10-28T03:52:30.326Z,28.90
2022-10-28T03:55:32.316Z,28.90
2022-10-28T03:58:37.285Z,29.00
2022-10-28T04:01:42.164Z,28.80
2022-10-28T04:04:44.400Z,28.80
2022-10-28T04:07:46.767Z,28.60
2022-10-28T04:10:49.312Z,28.60
2022-10-28T04:13:51.220Z,28.50
2022-10-28T04:16:53.403Z,28.40
2022-10-28T04:19:55.329Z,28.50
2022-10-28T04:22:58.155Z,28.80
2022-10-28T04:26:00.214Z,28.80
2022-10-28T04:29:02.289Z,28.70
2022-10-28T04:32:04.424Z,28.70
2022-10-28T04:35:06.776Z,28.80
2022-10-28T04:38:14.275Z,29.20
2022-10-28T04:41:16.844Z,29.20
2022-10-28T04:44:18.996Z,29.00
2022-10-28T04:47:21.093Z,29.20
2022-10-28T04:50:23.013Z,29.00
2022-10-28T04:53:25.171Z,29.10
2022-10-28T04:56:27.147Z,29.40
2022-10-28T04:59:29.337Z,29.10
2022-10-28T05:02:31.279Z,29.40
2022-10-28T05:05:33.822Z,29.40
2022-10-28T05:08:35.858Z,29.20
2022-10-28T05:11:38.018Z,29.10
2022-10-28T05:14:39.946Z,29.10
2022-10-28T05:17:46.600Z,29.60
2022-10-28T05:20:53.051Z,29.90
2022-10-28T05:23:55.277Z,30.00
2022-10-28T05:26:59.597Z,29.80
2022-10-28T05:30:01.771Z,29.40
2022-10-28T05:33:04.406Z,29.30
2022-10-28T05:36:06.831Z,29.00
2022-10-28T05:39:08.896Z,28.80
2022-10-28T05:42:10.949Z,29.00
2022-10-28T05:45:13.024Z,29.00
2022-10-28T05:48:15.097Z,28.80
2022-10-28T05:51:16.999Z,28.80
2022-10-28T05:54:19.320Z,28.90
2022-10-28T05:57:21.280Z,28.60
2022-10-28T06:00:25.944Z,28.80
2022-10-28T06:03:30.976Z,29.00
2022-10-28T06:06:33.806Z,29.00
2022-10-28T06:09:36.115Z,29.20
2022-10-28T06:12:36.925Z,29.20
2022-10-28T06:15:41.636Z,28.90
2022-10-28T06:18:43.698Z,29.10
2022-10-28T06:21:45.573Z,29.30
2022-10-28T06:24:48.523Z,29.40
2022-10-28T06:27:53.115Z,29.50
2022-10-28T06:31:07.762Z,29.40
2022-10-28T06:34:10.294Z,29.30
2022-10-28T06:37:12.869Z,29.40
2022-10-28T06:40:14.795Z,29.80
2022-10-28T06:43:16.962Z,30.00
2022-10-28T06:46:19.057Z,30.50
2022-10-28T06:49:22.671Z,30.60
2022-10-28T06:52:24.607Z,31.00
2022-10-28T06:55:27.879Z,31.30
2022-10-28T06:58:29.920Z,31.40
2022-10-28T07:01:34.925Z,31.60
2022-10-28T07:04:39.503Z,31.90
2022-10-28T07:07:41.507Z,31.90
2022-10-28T07:10:44.741Z,31.90
2022-10-28T07:13:48.923Z,31.90
2022-10-28T07:16:51.320Z,31.90
2022-10-28T07:19:53.270Z,32.00
2022-10-28T07:23:00.270Z,32.10
2022-10-28T07:26:02.317Z,32.20
2022-10-28T07:29:04.486Z,32.20
2022-10-28T07:32:06.561Z,32.30
2022-10-28T07:35:09.041Z,32.20
2022-10-28T07:38:12.442Z,32.20
2022-10-28T07:41:14.550Z,32.10
2022-10-28T07:44:16.654Z,32.10
2022-10-28T07:47:20.488Z,32.00
2022-10-28T07:50:22.539Z,32.00
2022-10-28T07:53:27.724Z,32.00
2022-10-28T07:56:30.856Z,32.20
2022-10-28T07:59:32.961Z,33.00
2022-10-28T08:02:36.084Z,32.40
2022-10-28T08:05:40.739Z,32.60
2022-10-28T08:08:43.984Z,32.50
2022-10-28T08:11:46.221Z,32.70
2022-10-28T08:14:48.569Z,32.50
2022-10-28T08:17:52.755Z,32.40
2022-10-28T08:20:55.000Z,32.30
2022-10-28T08:23:58.234Z,32.20
2022-10-28T08:27:01.283Z,32.50
2022-10-28T08:30:04.021Z,32.50
2022-10-28T08:33:09.344Z,32.60
2022-10-28T08:36:20.381Z,32.60
2022-10-28T08:39:25.408Z,32.50
2022-10-28T08:42:49.488Z,32.50
2022-10-28T08:46:18.943Z,32.80
2022-10-28T08:49:23.858Z,33.70
2022-10-28T08:52:35.570Z,33.30
2022-10-28T08:55:43.020Z,33.00
2022-10-28T08:58:47.254Z,33.00
2022-10-28T09:01:59.755Z,32.80
2022-10-28T09:05:20.561Z,32.80
2022-10-28T09:08:25.538Z,32.60
2022-10-28T09:11:46.355Z,32.80
2022-10-28T09:15:09.871Z,32.70
2022-10-28T09:18:24.216Z,32.90
2022-10-28T09:21:38.324Z,33.10
2022-10-28T09:24:52.616Z,32.70
2022-10-28T09:28:14.237Z,32.50
2022-10-28T09:31:37.179Z,32.60
2022-10-28T09:34:59.807Z,32.60
2022-10-28T09:38:25.569Z,32.60
2022-10-28T09:41:33.716Z,32.50
2022-10-28T09:44:48.426Z,32.70
2022-10-28T09:48:05.384Z,33.00
2022-10-28T09:51:18.420Z,32.90
2022-10-28T09:54:34.839Z,32.40
2022-10-28T09:57:36.822Z,32.40
2022-10-28T10:00:42.432Z,32.10
2022-10-28T10:03:47.652Z,31.90
2022-10-28T10:06:54.223Z,31.90
2022-10-28T10:09:58.348Z,31.30
2022-10-28T10:13:04.022Z,31.00
2022-10-28T10:16:11.751Z,30.90
2022-10-28T10:19:14.111Z,30.90
2022-10-28T10:22:38.980Z,31.30
2022-10-28T10:25:43.969Z,31.60
2022-10-28T10:28:48.342Z,31.10
2022-10-28T10:32:05.003Z,31.30
2022-10-28T10:35:27.924Z,31.20
2022-10-28T10:38:31.758Z,31.20
2022-10-28T10:41:43.109Z,31.10
2022-10-28T10:44:46.322Z,31.20
2022-10-28T10:47:48.389Z,31.10
2022-10-28T10:50:51.203Z,31.00
2022-10-28T10:53:56.796Z,30.80
2022-10-28T10:57:18.744Z,31.10
2022-10-28T11:00:25.520Z,30.80
2022-10-28T11:03:31.962Z,30.70
2022-10-28T11:06:38.816Z,30.80
2022-10-28T11:09:42.432Z,30.50
2022-10-28T11:12:56.019Z,30.30
2022-10-28T11:16:06.995Z,30.40
2022-10-28T11:19:36.016Z,30.30
2022-10-28T11:23:05.330Z,30.40
2022-10-28T11:26:12.195Z,29.90
2022-10-28T11:29:15.900Z,30.00
2022-10-28T11:32:32.138Z,30.20
2022-10-28T11:35:43.428Z,29.90
2022-10-28T11:39:03.703Z,30.00
2022-10-28T11:42:11.732Z,30.00
2022-10-28T11:45:26.614Z,30.20
2022-10-28T11:48:54.685Z,29.90
2022-10-28T11:52:24.444Z,30.00
2022-10-28T11:55:37.385Z,29.90
2022-10-28T11:59:03.696Z,29.80
2022-10-28T12:02:43.396Z,29.70
2022-10-28T12:05:53.642Z,29.90
2022-10-28T12:09:28.816Z,29.70
2022-10-28T12:12:51.613Z,30.00
2022-10-28T12:16:08.795Z,29.90
2022-10-28T12:19:19.825Z,30.00
2022-10-28T12:22:37.833Z,29.90
2022-10-28T12:25:43.813Z,30.00
2022-10-28T12:29:00.457Z,29.90
2022-10-28T12:32:09.323Z,30.00
2022-10-28T12:35:18.981Z,29.70
2022-10-28T12:38:30.428Z,29.80
2022-10-28T12:42:03.806Z,29.80
2022-10-28T12:45:12.834Z,29.70
2022-10-28T12:48:28.028Z,29.80
2022-10-28T12:51:40.406Z,30.00
2022-10-28T12:54:58.350Z,29.90
2022-10-28T12:58:15.386Z,29.90
2022-10-28T13:01:21.004Z,29.70
2022-10-28T13:04:23.136Z,29.70
2022-10-28T13:07:34.293Z,29.70
2022-10-28T13:10:57.688Z,29.70
2022-10-28T13:14:44.122Z,29.80
2022-10-28T13:18:34.680Z,29.80
2022-10-28T13:22:19.443Z,30.00
2022-10-28T13:25:27.235Z,29.80
2022-10-28T13:28:36.561Z,30.00
2022-10-28T13:31:44.937Z,30.00
2022-10-28T13:34:47.136Z,30.30
2022-10-28T13:37:50.970Z,30.60
2022-10-28T13:40:59.019Z,31.20
2022-10-28T13:44:10.102Z,31.10
2022-10-28T13:47:15.309Z,30.90
2022-10-28T13:50:33.635Z,30.70
2022-10-28T13:53:44.377Z,30.50
2022-10-28T13:56:49.716Z,30.40
2022-10-28T14:00:00.629Z,30.20
2022-10-28T14:03:05.549Z,30.20
2022-10-28T14:06:08.106Z,30.40
2022-10-28T14:09:21.513Z,30.00
2022-10-28T14:12:32.148Z,30.40
2022-10-28T14:15:39.239Z,30.00
2022-10-28T14:18:44.340Z,30.00
2022-10-28T14:22:03.135Z,30.00
2022-10-28T14:25:40.826Z,30.00
2022-10-28T14:28:42.697Z,30.10
2022-10-28T14:31:45.069Z,30.40
2022-10-28T14:34:48.046Z,30.10
2022-10-28T14:38:02.270Z,30.30
2022-10-28T14:41:18.914Z,30.60
2022-10-28T14:44:47.654Z,30.70
2022-10-28T14:48:20.710Z,30.60
2022-10-28T14:51:28.072Z,30.70
2022-10-28T14:54:52.520Z,30.90
2022-10-28T14:57:54.923Z,30.90
2022-10-28T15:01:19.855Z,30.80
2022-10-28T15:04:22.496Z,30.80
2022-10-28T15:07:24.721Z,30.70
2022-10-28T15:10:29.458Z,30.90
2022-10-28T15:13:31.330Z,31.00
2022-10-28T15:16:33.694Z,31.10
2022-10-28T15:19:35.826Z,31.10
2022-10-28T15:22:37.971Z,31.20
2022-10-28T15:25:39.963Z,31.20
2022-10-28T15:28:42.684Z,31.50
2022-10-28T15:32:13.563Z,31.50
2022-10-28T15:35:45.191Z,31.60
2022-10-28T15:38:49.782Z,31.70
2022-10-28T15:41:55.390Z,31.80
2022-10-28T15:44:57.892Z,31.80
2022-10-28T15:48:02.043Z,31.80
2022-10-28T15:51:22.005Z,31.90
2022-10-28T15:54:24.152Z,32.00
2022-10-28T15:57:31.032Z,31.90
2022-10-28T16:00:34.429Z,31.90
2022-10-28T16:03:48.575Z,32.10
2022-10-28T16:06:56.817Z,32.10
2022-10-28T16:09:58.755Z,31.90
2022-10-28T16:13:02.101Z,32.10
2022-10-28T16:16:15.534Z,32.30
2022-10-28T16:19:30.869Z,32.40
2022-10-28T16:22:35.668Z,32.30
2022-10-28T16:25:37.783Z,32.50
2022-10-28T16:28:44.969Z,32.50
2022-10-28T16:31:51.829Z,32.60
2022-10-28T16:34:53.784Z,32.70
2022-10-28T16:37:56.043Z,32.60
2022-10-28T16:40:59.654Z,32.50
2022-10-28T16:44:01.902Z,32.50
2022-10-28T16:47:18.116Z,32.60
2022-10-28T16:50:21.296Z,32.70
2022-10-28T16:53:23.381Z,32.90
2022-10-28T16:56:25.542Z,33.20
2022-10-28T16:59:27.412Z,33.00
2022-10-28T17:02:32.407Z,32.70
2022-10-28T17:05:34.458Z,33.00
2022-10-28T17:09:01.313Z,33.10
2022-10-28T17:11:58.395Z,32.80
2022-10-28T17:15:00.554Z,32.80
2022-10-28T17:18:02.544Z,32.90
2022-10-28T17:21:04.730Z,32.80
2022-10-28T17:24:07.027Z,32.70
2022-10-28T17:27:09.152Z,32.80
2022-10-28T17:30:11.683Z,32.50
2022-10-28T17:33:13.794Z,32.40
2022-10-28T17:36:15.734Z,32.60
2022-10-28T17:39:21.910Z,32.70
2022-10-28T17:42:26.863Z,32.50
2022-10-28T17:45:29.006Z,32.80
2022-10-28T17:48:30.981Z,32.80
2022-10-28T17:51:33.058Z,33.00
2022-10-28T17:54:34.986Z,32.80
2022-10-28T17:57:37.043Z,32.60
2022-10-28T18:00:38.976Z,32.50
2022-10-28T18:03:41.130Z,32.60
2022-10-28T18:06:43.247Z,32.80
2022-10-28T18:09:45.393Z,33.00
2022-10-28T18:12:51.088Z,33.00
2022-10-28T18:15:53.241Z,33.10
2022-10-28T18:18:55.868Z,32.90
2022-10-28T18:21:58.090Z,33.00
2022-10-28T18:25:00.003Z,32.80
2022-10-28T18:28:04.840Z,32.50
2022-10-28T18:31:15.191Z,32.80
2022-10-28T18:34:17.488Z,32.50
2022-10-28T18:37:19.393Z,32.70
2022-10-28T18:40:22.671Z,32.60
2022-10-28T18:43:24.797Z,32.50
2022-10-28T18:46:28.892Z,32.50
2022-10-28T18:49:31.400Z,32.40
2022-10-28T18:52:33.735Z,32.40
2022-10-28T18:55:35.684Z,32.50
2022-10-28T18:58:37.956Z,32.50
2022-10-28T19:01:46.567Z,32.90
2022-10-28T19:04:49.388Z,32.90
2022-10-28T19:07:51.843Z,32.90
2022-10-28T19:10:58.515Z,32.90
2022-10-28T19:14:03.583Z,33.00
2022-10-28T19:17:06.686Z,33.40
2022-10-28T19:20:09.054Z,33.40
2022-10-28T19:23:11.534Z,33.30
2022-10-28T19:26:14.012Z,33.30
2022-10-28T19:29:16.465Z,33.40
2022-10-28T19:32:18.715Z,33.30
2022-10-28T19:35:21.164Z,33.20
2022-10-28T19:38:23.264Z,33.10
2022-10-28T19:41:29.754Z,33.10
2022-10-28T19:44:31.903Z,33.20
2022-10-28T19:47:34.128Z,33.30
2022-10-28T19:50:36.182Z,33.50
2022-10-28T19:53:38.577Z,33.30
2022-10-28T19:56:42.691Z,33.50
2022-10-28T19:59:44.817Z,33.50
2022-10-28T20:02:47.591Z,33.40
2022-10-28T20:05:57.752Z,33.40
2022-10-28T20:08:59.665Z,33.40
2022-10-28T20:12:02.120Z,33.30
2022-10-28T20:15:05.185Z,33.40
2022-10-28T20:18:07.364Z,33.50
2022-10-28T20:21:14.756Z,33.60
2022-10-28T20:24:17.401Z,33.70
2022-10-28T20:27:19.357Z,33.80
2022-10-28T20:30:22.861Z,33.70
2022-10-28T20:33:25.865Z,33.60
2022-10-28T20:36:32.142Z,33.60
2022-10-28T20:39:34.032Z,33.70
2022-10-28T20:42:36.228Z,33.70
2022-10-28T20:45:38.154Z,33.50
2022-10-28T20:48:40.659Z,33.70
2022-10-28T20:51:42.885Z,33.70
2022-10-28T20:54:44.957Z,33.50
2022-10-28T20:57:46.835Z,33.60
2022-10-28T21:00:48.949Z,33.50
2022-10-28T21:03:54.888Z,33.60
2022-10-28T21:06:57.216Z,33.50
2022-10-28T21:09:59.252Z,33.70
2022-10-28T21:13:01.715Z,33.30
2022-10-28T21:16:05.420Z,33.40
2022-10-28T21:19:07.592Z,33.70
2022-10-28T21:22:09.597Z,33.70
2022-10-28T21:25:11.725Z,34.20
2022-10-28T21:28:13.618Z,33.20
2022-10-28T21:31:18.134Z,33.50
2022-10-28T21:34:20.086Z,33.20
2022-10-28T21:37:22.154Z,33.30
2022-10-28T21:40:24.049Z,33.10
2022-10-28T21:43:28.242Z,33.10
2022-10-28T21:46:30.154Z,33.10
2022-10-28T21:49:32.288Z,33.10
2022-10-28T21:52:34.231Z,33.20
2022-10-28T21:55:47.131Z,33.10
2022-10-28T21:58:51.253Z,33.10
2022-10-28T22:01:53.969Z,32.90
2022-10-28T22:04:55.923Z,32.90
2022-10-28T22:07:58.137Z,32.90
2022-10-28T22:11:13.658Z,32.60
2022-10-28T22:14:16.235Z,32.20
2022-10-28T22:17:18.109Z,32.10
2022-10-28T22:20:20.274Z,32.00
2022-10-28T22:23:22.491Z,31.90
2022-10-28T22:26:28.010Z,31.80
2022-10-28T22:29:30.116Z,31.90
2022-10-28T22:32:32.166Z,32.60
2022-10-28T22:35:34.049Z,32.00
2022-10-28T22:38:36.854Z,32.10
2022-10-28T22:41:38.747Z,32.00
2022-10-28T22:44:40.925Z,31.90
2022-10-28T22:47:42.800Z,31.90
2022-10-28T22:50:44.854Z,31.70
2022-10-28T22:53:47.378Z,31.60
2022-10-28T22:56:49.523Z,31.50
2022-10-28T22:59:51.404Z,31.30
2022-10-28T23:02:53.981Z,31.50
2022-10-28T23:05:56.123Z,31.40
2022-10-28T23:08:58.366Z,31.90
2022-10-28T23:12:00.269Z,31.20
2022-10-28T23:15:02.426Z,31.50
2022-10-28T23:18:04.508Z,31.00
2022-10-28T23:21:10.486Z,31.20
2022-10-28T23:24:12.372Z,31.20
2022-10-28T23:27:14.487Z,31.30
2022-10-28T23:30:16.502Z,31.40
2022-10-28T23:33:18.676Z,31.20
2022-10-28T23:36:20.962Z,31.00
2022-10-28T23:39:23.115Z,30.90
2022-10-28T23:42:25.034Z,30.90
2022-10-28T23:45:27.102Z,31.00
2022-10-28T23:48:29.951Z,30.90
2022-10-28T23:51:32.132Z,30.90
2022-10-28T23:54:34.156Z,30.80
2022-10-28T23:57:36.680Z,30.90
